Hardyville, Virginia
Current Conditions -  °F | °C
As of 3:15 PM on Monday 24 Nov 2014 (Local Time) from KW75 Reporting Station
Broken Clouds Broken Clouds  
Wind Chill: 73°   Ceiling: 10000
Heat Index: 73°   Visibility: 10mi
Dew Point: 58°   Wind: 17mph
Humidity: 60%   Direction: 210°SSW
Pressure: 29.71"   Gusts: 28mph
Location:  37.56°N, 76.37°W
Report Text: KW75 242015Z AUTO 21015G24KT 10SM BKN100 23/14 A2971 RMK AO1 T02250143
Loading
Personal Weather Stations






























Interactive Weather Map New forecast layout! Learn more

10-Day Weather Forecast

Advertisements
Track Severe Weather on mobile